CheckWX is a tool to help pilots better visualize weather data.  It is not intended as a substitute for an official pre-flight weather briefing.

13:56:49 UTC

KFWN METAR
Sussex Airport
Sussex, New Jersey, USA
Current

13 mins ago

KFWN 261344Z AUTO 05005KT 4SM RA BR BKN022 BKN055 OVC090 12/11 A2970 RMK AO2 RAB22 P0004 T01220106
Observed
Apr-26 @ 13:44 UTC
Wind
  • 050° at 5 KTS
Visibility
4 SM
Flight Rules
MVFR
Conditions
Rain, Mist
Cloud Levels
  • Broken at 2,200' AGL
  • Broken at 5,500' AGL
  • Overcast at 9,000' AGL
Temperature
12°C / 54°F
Dewpoint
11°C / 52°F
Humidity
94%
Altimeter
29.7" Hg
Pressure
1005.72 hPa
Current Rain
0.04"
Previous

1 hour ago

KFWN 261253Z AUTO 02004KT 10SM FEW021 SCT110 13/11 A2972 RMK AO2 RAE1155 SLP062 P0000 T01280106
Observed
Apr-26 @ 12:53 UTC
Wind
  • 020° at 4 KTS
Visibility
10 SM
Flight Rules
VFR
Cloud Levels
  • Few at 2,100' AGL
  • Scattered at 11,000' AGL
Temperature
13°C / 55°F
Dewpoint
11°C / 52°F
Humidity
88%
Altimeter
29.72" Hg
Pressure
1006.42 hPa
Current Rain
0.01"
Previous

2 hours ago

KFWN 261153Z AUTO 04003KT 10SM -RA FEW017 FEW080 BKN110 12/11 A2975 RMK AO2 RAB23 SLP073 P0000 60019 70019 T01220106 10128 20117 56027
Observed
Apr-26 @ 11:53 UTC
Wind
  • 040° at 3 KTS
Visibility
10 SM
Flight Rules
VFR
Conditions
Light Rain
Cloud Levels
  • Few at 1,700' AGL
  • Few at 8,000' AGL
  • Broken at 11,000' AGL
Temperature
12°C / 54°F
Dewpoint
11°C / 52°F
Humidity
94%
Altimeter
29.75" Hg
Pressure
1007.42 hPa
Current Rain
0.01"
24 Hour Rain
0.19"